sensor_id;sensor_type;location;lat;lon;timestamp;P1;durP1;ratioP1;P2;durP2;ratioP2
78838;SDS011;68189;47.190;27.558;2023-03-01T00:02:13;2.70;;;2.30;;
78838;SDS011;68189;47.190;27.558;2023-03-01T00:04:43;2.80;;;2.10;;
78838;SDS011;68189;47.190;27.558;2023-03-01T00:07:14;2.70;;;2.30;;
78838;SDS011;68189;47.190;27.558;2023-03-01T00:09:44;3.80;;;2.50;;
78838;SDS011;68189;47.190;27.558;2023-03-01T00:12:15;2.40;;;1.90;;
78838;SDS011;68189;47.190;27.558;2023-03-01T00:14:45;2.60;;;2.20;;
78838;SDS011;68189;47.190;27.558;2023-03-01T00:17:15;2.90;;;2.40;;
78838;SDS011;68189;47.190;27.558;2023-03-01T00:19:46;2.50;;;1.90;;
78838;SDS011;68189;47.190;27.558;2023-03-01T00:22:16;3.20;;;2.30;;
78838;SDS011;68189;47.190;27.558;2023-03-01T00:24:46;3.00;;;1.90;;
78838;SDS011;68189;47.190;27.558;2023-03-01T00:27:17;2.80;;;2.10;;
78838;SDS011;68189;47.190;27.558;2023-03-01T00:29:47;3.40;;;2.60;;
78838;SDS011;68189;47.190;27.558;2023-03-01T00:32:18;2.90;;;2.20;;
78838;SDS011;68189;47.190;27.558;2023-03-01T00:34:48;3.00;;;2.00;;
78838;SDS011;68189;47.190;27.558;2023-03-01T00:37:23;3.10;;;2.00;;
78838;SDS011;68189;47.190;27.558;2023-03-01T00:39:53;2.90;;;2.30;;
78838;SDS011;68189;47.190;27.558;2023-03-01T00:42:24;2.90;;;2.20;;
78838;SDS011;68189;47.190;27.558;2023-03-01T00:44:54;3.50;;;2.50;;
78838;SDS011;68189;47.190;27.558;2023-03-01T00:47:24;2.70;;;2.20;;
78838;SDS011;68189;47.190;27.558;2023-03-01T00:49:56;2.50;;;2.10;;
78838;SDS011;68189;47.190;27.558;2023-03-01T00:52:27;2.90;;;2.30;;
78838;SDS011;68189;47.190;27.558;2023-03-01T00:54:57;3.50;;;2.40;;
78838;SDS011;68189;47.190;27.558;2023-03-01T00:57:27;3.30;;;2.60;;
78838;SDS011;68189;47.190;27.558;2023-03-01T00:59:57;3.30;;;2.30;;
78838;SDS011;68189;47.190;27.558;2023-03-01T01:02:28;2.70;;;2.20;;
78838;SDS011;68189;47.190;27.558;2023-03-01T01:05:00;2.70;;;2.20;;
78838;SDS011;68189;47.190;27.558;2023-03-01T01:07:31;3.70;;;2.70;;
78838;SDS011;68189;47.190;27.558;2023-03-01T01:10:01;3.10;;;2.30;;
78838;SDS011;68189;47.190;27.558;2023-03-01T01:12:32;3.10;;;2.20;;
78838;SDS011;68189;47.190;27.558;2023-03-01T01:15:03;3.80;;;2.60;;
78838;SDS011;68189;47.190;27.558;2023-03-01T01:17:34;3.10;;;2.20;;
78838;SDS011;68189;47.190;27.558;2023-03-01T01:20:05;3.30;;;2.40;;
78838;SDS011;68189;47.190;27.558;2023-03-01T01:22:37;3.30;;;2.60;;
78838;SDS011;68189;47.190;27.558;2023-03-01T01:25:08;3.40;;;2.60;;
78838;SDS011;68189;47.190;27.558;2023-03-01T01:27:39;3.20;;;2.40;;
78838;SDS011;68189;47.190;27.558;2023-03-01T01:30:10;2.60;;;2.30;;
78838;SDS011;68189;47.190;27.558;2023-03-01T01:32:41;3.40;;;2.40;;
78838;SDS011;68189;47.190;27.558;2023-03-01T01:35:11;3.10;;;2.40;;
78838;SDS011;68189;47.190;27.558;2023-03-01T01:37:42;3.00;;;2.40;;
78838;SDS011;68189;47.190;27.558;2023-03-01T01:40:13;3.50;;;2.50;;
78838;SDS011;68189;47.190;27.558;2023-03-01T01:42:43;4.00;;;2.50;;
78838;SDS011;68189;47.190;27.558;2023-03-01T01:48:02;3.20;;;2.70;;
78838;SDS011;68189;47.190;27.558;2023-03-01T01:50:39;3.00;;;2.30;;
78838;SDS011;68189;47.190;27.558;2023-03-01T01:53:12;2.80;;;2.40;;
78838;SDS011;68189;47.190;27.558;2023-03-01T01:55:49;3.10;;;2.40;;
78838;SDS011;68189;47.190;27.558;2023-03-01T01:58:25;3.90;;;2.70;;
78838;SDS011;68189;47.190;27.558;2023-03-01T02:00:57;5.20;;;2.90;;
78838;SDS011;68189;47.190;27.558;2023-03-01T02:03:29;2.90;;;2.40;;
78838;SDS011;68189;47.190;27.558;2023-03-01T02:06:06;3.20;;;2.70;;
78838;SDS011;68189;47.190;27.558;2023-03-01T02:08:47;3.10;;;2.40;;
78838;SDS011;68189;47.190;27.558;2023-03-01T02:11:20;3.20;;;2.60;;
78838;SDS011;68189;47.190;27.558;2023-03-01T02:13:52;3.30;;;2.60;;
78838;SDS011;68189;47.190;27.558;2023-03-01T02:16:23;3.80;;;2.80;;
78838;SDS011;68189;47.190;27.558;2023-03-01T02:18:56;3.30;;;2.70;;
78838;SDS011;68189;47.190;27.558;2023-03-01T02:21:32;2.90;;;2.40;;
78838;SDS011;68189;47.190;27.558;2023-03-01T02:24:16;4.20;;;2.70;;
78838;SDS011;68189;47.190;27.558;2023-03-01T02:26:52;3.10;;;2.60;;
78838;SDS011;68189;47.190;27.558;2023-03-01T02:29:25;3.30;;;2.70;;
78838;SDS011;68189;47.190;27.558;2023-03-01T02:31:57;3.60;;;2.80;;
78838;SDS011;68189;47.190;27.558;2023-03-01T02:34:30;4.40;;;2.80;;
78838;SDS011;68189;47.190;27.558;2023-03-01T02:37:02;3.50;;;2.40;;
78838;SDS011;68189;47.190;27.558;2023-03-01T02:39:39;3.50;;;2.70;;
78838;SDS011;68189;47.190;27.558;2023-03-01T02:42:14;3.30;;;2.30;;
78838;SDS011;68189;47.190;27.558;2023-03-01T02:44:50;3.00;;;2.60;;
78838;SDS011;68189;47.190;27.558;2023-03-01T02:47:20;3.20;;;2.50;;
78838;SDS011;68189;47.190;27.558;2023-03-01T02:49:51;3.10;;;2.40;;
78838;SDS011;68189;47.190;27.558;2023-03-01T02:52:26;2.80;;;2.40;;
78838;SDS011;68189;47.190;27.558;2023-03-01T02:55:06;3.30;;;2.70;;
78838;SDS011;68189;47.190;27.558;2023-03-01T02:57:40;3.60;;;2.50;;
78838;SDS011;68189;47.190;27.558;2023-03-01T03:00:13;3.80;;;2.70;;
78838;SDS011;68189;47.190;27.558;2023-03-01T03:02:47;3.00;;;2.50;;
78838;SDS011;68189;47.190;27.558;2023-03-01T03:05:19;3.60;;;2.80;;
78838;SDS011;68189;47.190;27.558;2023-03-01T03:07:51;3.50;;;2.90;;
78838;SDS011;68189;47.190;27.558;2023-03-01T03:10:23;5.00;;;2.60;;
78838;SDS011;68189;47.190;27.558;2023-03-01T03:12:55;3.50;;;2.90;;
78838;SDS011;68189;47.190;27.558;2023-03-01T03:15:28;3.30;;;3.00;;
78838;SDS011;68189;47.190;27.558;2023-03-01T03:18:04;3.90;;;3.10;;
78838;SDS011;68189;47.190;27.558;2023-03-01T03:20:37;3.60;;;2.50;;
78838;SDS011;68189;47.190;27.558;2023-03-01T03:23:10;3.90;;;2.60;;
78838;SDS011;68189;47.190;27.558;2023-03-01T03:25:40;3.50;;;2.60;;
78838;SDS011;68189;47.190;27.558;2023-03-01T03:28:11;4.10;;;2.80;;
78838;SDS011;68189;47.190;27.558;2023-03-01T03:30:42;3.50;;;2.80;;
78838;SDS011;68189;47.190;27.558;2023-03-01T03:33:13;4.20;;;2.70;;
78838;SDS011;68189;47.190;27.558;2023-03-01T03:35:46;3.40;;;2.90;;
78838;SDS011;68189;47.190;27.558;2023-03-01T03:38:18;3.20;;;2.80;;
78838;SDS011;68189;47.190;27.558;2023-03-01T03:40:49;4.30;;;3.00;;
78838;SDS011;68189;47.190;27.558;2023-03-01T03:43:21;4.50;;;3.80;;
78838;SDS011;68189;47.190;27.558;2023-03-01T03:45:52;5.00;;;3.40;;
78838;SDS011;68189;47.190;27.558;2023-03-01T03:48:24;4.60;;;3.20;;
78838;SDS011;68189;47.190;27.558;2023-03-01T03:50:55;3.60;;;2.80;;
78838;SDS011;68189;47.190;27.558;2023-03-01T03:53:27;4.00;;;3.10;;
78838;SDS011;68189;47.190;27.558;2023-03-01T03:55:57;3.80;;;3.10;;
78838;SDS011;68189;47.190;27.558;2023-03-01T03:58:28;3.60;;;2.90;;
78838;SDS011;68189;47.190;27.558;2023-03-01T04:00:59;4.00;;;3.30;;
78838;SDS011;68189;47.190;27.558;2023-03-01T04:03:30;3.80;;;2.90;;
78838;SDS011;68189;47.190;27.558;2023-03-01T04:06:02;4.50;;;3.10;;
78838;SDS011;68189;47.190;27.558;2023-03-01T04:08:33;4.40;;;3.60;;
78838;SDS011;68189;47.190;27.558;2023-03-01T04:11:03;4.30;;;3.20;;
78838;SDS011;68189;47.190;27.558;2023-03-01T04:13:48;4.30;;;3.10;;
78838;SDS011;68189;47.190;27.558;2023-03-01T04:16:19;4.60;;;3.30;;
78838;SDS011;68189;47.190;27.558;2023-03-01T04:18:50;4.60;;;3.80;;
78838;SDS011;68189;47.190;27.558;2023-03-01T04:21:21;4.40;;;3.10;;
78838;SDS011;68189;47.190;27.558;2023-03-01T04:23:52;4.40;;;3.50;;
78838;SDS011;68189;47.190;27.558;2023-03-01T04:26:22;3.90;;;3.00;;
78838;SDS011;68189;47.190;27.558;2023-03-01T04:28:54;5.10;;;3.80;;
78838;SDS011;68189;47.190;27.558;2023-03-01T04:31:24;4.20;;;3.40;;
78838;SDS011;68189;47.190;27.558;2023-03-01T04:33:55;4.10;;;3.30;;
78838;SDS011;68189;47.190;27.558;2023-03-01T04:36:27;4.00;;;3.20;;
78838;SDS011;68189;47.190;27.558;2023-03-01T04:38:58;4.50;;;4.00;;
78838;SDS011;68189;47.190;27.558;2023-03-01T04:41:39;5.10;;;4.10;;
78838;SDS011;68189;47.190;27.558;2023-03-01T04:44:10;4.90;;;3.50;;
78838;SDS011;68189;47.190;27.558;2023-03-01T04:46:40;3.70;;;3.30;;
78838;SDS011;68189;47.190;27.558;2023-03-01T04:49:10;5.20;;;3.90;;
78838;SDS011;68189;47.190;27.558;2023-03-01T04:51:41;4.80;;;3.70;;
78838;SDS011;68189;47.190;27.558;2023-03-01T04:54:11;5.30;;;3.50;;
78838;SDS011;68189;47.190;27.558;2023-03-01T04:56:41;5.10;;;3.60;;
78838;SDS011;68189;47.190;27.558;2023-03-01T04:59:12;4.70;;;3.80;;
78838;SDS011;68189;47.190;27.558;2023-03-01T05:01:42;4.90;;;3.80;;
78838;SDS011;68189;47.190;27.558;2023-03-01T05:04:13;5.50;;;4.00;;
78838;SDS011;68189;47.190;27.558;2023-03-01T05:06:43;4.60;;;3.50;;
78838;SDS011;68189;47.190;27.558;2023-03-01T05:09:14;4.80;;;3.80;;
78838;SDS011;68189;47.190;27.558;2023-03-01T05:11:45;4.90;;;3.80;;
78838;SDS011;68189;47.190;27.558;2023-03-01T05:14:17;5.30;;;3.90;;
78838;SDS011;68189;47.190;27.558;2023-03-01T05:16:47;4.60;;;3.80;;
78838;SDS011;68189;47.190;27.558;2023-03-01T05:19:17;4.40;;;3.70;;
78838;SDS011;68189;47.190;27.558;2023-03-01T05:21:49;5.40;;;4.10;;
78838;SDS011;68189;47.190;27.558;2023-03-01T05:24:32;4.40;;;3.70;;
78838;SDS011;68189;47.190;27.558;2023-03-01T05:27:03;4.80;;;4.00;;
78838;SDS011;68189;47.190;27.558;2023-03-01T05:29:34;5.50;;;4.30;;
78838;SDS011;68189;47.190;27.558;2023-03-01T05:32:06;4.70;;;3.80;;
78838;SDS011;68189;47.190;27.558;2023-03-01T05:34:41;5.60;;;3.70;;
78838;SDS011;68189;47.190;27.558;2023-03-01T05:37:13;4.80;;;3.80;;
78838;SDS011;68189;47.190;27.558;2023-03-01T05:39:43;4.80;;;4.30;;
78838;SDS011;68189;47.190;27.558;2023-03-01T05:42:13;5.00;;;4.00;;
78838;SDS011;68189;47.190;27.558;2023-03-01T05:44:44;5.30;;;4.20;;
78838;SDS011;68189;47.190;27.558;2023-03-01T05:47:14;4.40;;;3.70;;
78838;SDS011;68189;47.190;27.558;2023-03-01T05:49:44;5.50;;;4.30;;
78838;SDS011;68189;47.190;27.558;2023-03-01T05:52:16;5.60;;;4.30;;
78838;SDS011;68189;47.190;27.558;2023-03-01T05:54:46;5.80;;;4.00;;
78838;SDS011;68189;47.190;27.558;2023-03-01T05:57:17;5.70;;;3.80;;
78838;SDS011;68189;47.190;27.558;2023-03-01T05:59:47;5.80;;;4.10;;
78838;SDS011;68189;47.190;27.558;2023-03-01T06:02:18;6.20;;;4.50;;
78838;SDS011;68189;47.190;27.558;2023-03-01T06:04:48;5.50;;;4.30;;
78838;SDS011;68189;47.190;27.558;2023-03-01T06:07:18;4.70;;;4.10;;
78838;SDS011;68189;47.190;27.558;2023-03-01T06:09:49;4.70;;;4.10;;
78838;SDS011;68189;47.190;27.558;2023-03-01T06:12:19;4.80;;;3.80;;
78838;SDS011;68189;47.190;27.558;2023-03-01T06:14:50;5.10;;;3.90;;
78838;SDS011;68189;47.190;27.558;2023-03-01T06:17:21;5.20;;;3.90;;
78838;SDS011;68189;47.190;27.558;2023-03-01T06:19:51;6.70;;;4.50;;
78838;SDS011;68189;47.190;27.558;2023-03-01T06:22:22;7.20;;;5.10;;
78838;SDS011;68189;47.190;27.558;2023-03-01T06:24:52;6.30;;;4.90;;
78838;SDS011;68189;47.190;27.558;2023-03-01T06:27:23;8.80;;;4.40;;
78838;SDS011;68189;47.190;27.558;2023-03-01T06:29:53;5.50;;;4.70;;
78838;SDS011;68189;47.190;27.558;2023-03-01T06:32:24;7.10;;;5.40;;
78838;SDS011;68189;47.190;27.558;2023-03-01T06:34:54;7.40;;;5.40;;
78838;SDS011;68189;47.190;27.558;2023-03-01T06:37:25;7.70;;;5.00;;
78838;SDS011;68189;47.190;27.558;2023-03-01T06:39:56;7.20;;;5.50;;
78838;SDS011;68189;47.190;27.558;2023-03-01T06:42:26;8.70;;;6.00;;
78838;SDS011;68189;47.190;27.558;2023-03-01T06:44:56;7.40;;;5.40;;
78838;SDS011;68189;47.190;27.558;2023-03-01T06:47:27;7.50;;;5.90;;
78838;SDS011;68189;47.190;27.558;2023-03-01T06:49:57;8.10;;;6.10;;
78838;SDS011;68189;47.190;27.558;2023-03-01T06:52:27;8.80;;;6.10;;
78838;SDS011;68189;47.190;27.558;2023-03-01T06:54:58;7.90;;;5.60;;
78838;SDS011;68189;47.190;27.558;2023-03-01T06:57:29;8.20;;;5.80;;
78838;SDS011;68189;47.190;27.558;2023-03-01T06:59:59;9.80;;;6.40;;
78838;SDS011;68189;47.190;27.558;2023-03-01T07:02:29;8.70;;;5.90;;
78838;SDS011;68189;47.190;27.558;2023-03-01T07:05:00;8.50;;;6.40;;
78838;SDS011;68189;47.190;27.558;2023-03-01T07:07:31;8.20;;;6.60;;
78838;SDS011;68189;47.190;27.558;2023-03-01T07:10:02;9.00;;;6.70;;
78838;SDS011;68189;47.190;27.558;2023-03-01T07:12:33;8.10;;;6.40;;
78838;SDS011;68189;47.190;27.558;2023-03-01T07:15:04;7.50;;;5.70;;
78838;SDS011;68189;47.190;27.558;2023-03-01T07:17:37;9.00;;;7.10;;
78838;SDS011;68189;47.190;27.558;2023-03-01T07:20:09;11.10;;;7.10;;
78838;SDS011;68189;47.190;27.558;2023-03-01T07:22:41;7.70;;;5.90;;
78838;SDS011;68189;47.190;27.558;2023-03-01T07:25:11;8.90;;;6.50;;
78838;SDS011;68189;47.190;27.558;2023-03-01T07:27:42;8.60;;;6.30;;
78838;SDS011;68189;47.190;27.558;2023-03-01T07:30:18;8.50;;;6.00;;
78838;SDS011;68189;47.190;27.558;2023-03-01T07:32:49;7.50;;;6.20;;
78838;SDS011;68189;47.190;27.558;2023-03-01T07:35:19;7.60;;;6.00;;
78838;SDS011;68189;47.190;27.558;2023-03-01T07:37:50;8.10;;;6.20;;
78838;SDS011;68189;47.190;27.558;2023-03-01T07:40:21;8.80;;;6.10;;
78838;SDS011;68189;47.190;27.558;2023-03-01T07:42:56;7.90;;;5.80;;
78838;SDS011;68189;47.190;27.558;2023-03-01T07:45:28;8.50;;;5.70;;
78838;SDS011;68189;47.190;27.558;2023-03-01T07:47:59;7.20;;;5.40;;
78838;SDS011;68189;47.190;27.558;2023-03-01T07:50:29;7.90;;;5.80;;
78838;SDS011;68189;47.190;27.558;2023-03-01T07:52:59;7.70;;;5.90;;
78838;SDS011;68189;47.190;27.558;2023-03-01T07:55:31;6.90;;;5.30;;
78838;SDS011;68189;47.190;27.558;2023-03-01T07:58:02;7.60;;;5.90;;
78838;SDS011;68189;47.190;27.558;2023-03-01T08:00:33;7.80;;;5.80;;
78838;SDS011;68189;47.190;27.558;2023-03-01T08:03:03;7.40;;;5.80;;
78838;SDS011;68189;47.190;27.558;2023-03-01T08:05:34;7.20;;;5.50;;
78838;SDS011;68189;47.190;27.558;2023-03-01T08:08:05;6.80;;;5.70;;
78838;SDS011;68189;47.190;27.558;2023-03-01T08:10:37;8.20;;;6.00;;
78838;SDS011;68189;47.190;27.558;2023-03-01T08:13:07;8.40;;;5.90;;
78838;SDS011;68189;47.190;27.558;2023-03-01T08:15:38;8.70;;;5.50;;
78838;SDS011;68189;47.190;27.558;2023-03-01T08:18:08;8.10;;;5.70;;
78838;SDS011;68189;47.190;27.558;2023-03-01T08:20:39;6.80;;;5.50;;
78838;SDS011;68189;47.190;27.558;2023-03-01T08:23:09;9.30;;;6.00;;
78838;SDS011;68189;47.190;27.558;2023-03-01T08:25:40;6.80;;;5.70;;
78838;SDS011;68189;47.190;27.558;2023-03-01T08:28:10;9.30;;;6.10;;
78838;SDS011;68189;47.190;27.558;2023-03-01T08:30:41;9.00;;;5.60;;
78838;SDS011;68189;47.190;27.558;2023-03-01T08:33:11;6.50;;;5.30;;
78838;SDS011;68189;47.190;27.558;2023-03-01T08:35:42;7.70;;;5.50;;
78838;SDS011;68189;47.190;27.558;2023-03-01T08:38:12;7.60;;;5.60;;
78838;SDS011;68189;47.190;27.558;2023-03-01T08:40:43;6.80;;;5.30;;
78838;SDS011;68189;47.190;27.558;2023-03-01T08:43:13;6.80;;;5.40;;
78838;SDS011;68189;47.190;27.558;2023-03-01T08:45:44;7.20;;;5.50;;
78838;SDS011;68189;47.190;27.558;2023-03-01T08:48:16;7.80;;;5.60;;
78838;SDS011;68189;47.190;27.558;2023-03-01T08:50:46;7.50;;;6.00;;
78838;SDS011;68189;47.190;27.558;2023-03-01T08:53:17;8.00;;;5.60;;
78838;SDS011;68189;47.190;27.558;2023-03-01T08:55:48;6.80;;;5.10;;
78838;SDS011;68189;47.190;27.558;2023-03-01T08:58:18;7.30;;;5.30;;
78838;SDS011;68189;47.190;27.558;2023-03-01T09:00:49;7.80;;;5.80;;
78838;SDS011;68189;47.190;27.558;2023-03-01T09:03:19;6.20;;;4.90;;
78838;SDS011;68189;47.190;27.558;2023-03-01T09:05:50;7.20;;;5.60;;
78838;SDS011;68189;47.190;27.558;2023-03-01T09:08:21;7.00;;;5.50;;
78838;SDS011;68189;47.190;27.558;2023-03-01T09:10:52;6.90;;;5.50;;
78838;SDS011;68189;47.190;27.558;2023-03-01T09:13:23;7.10;;;5.50;;
78838;SDS011;68189;47.190;27.558;2023-03-01T09:15:58;5.50;;;4.90;;
78838;SDS011;68189;47.190;27.558;2023-03-01T09:18:31;7.80;;;6.00;;
78838;SDS011;68189;47.190;27.558;2023-03-01T09:21:03;8.00;;;5.70;;
78838;SDS011;68189;47.190;27.558;2023-03-01T09:23:35;8.40;;;5.60;;
78838;SDS011;68189;47.190;27.558;2023-03-01T09:26:08;8.00;;;5.50;;
78838;SDS011;68189;47.190;27.558;2023-03-01T09:28:40;8.20;;;5.80;;
78838;SDS011;68189;47.190;27.558;2023-03-01T09:31:11;7.10;;;5.50;;
78838;SDS011;68189;47.190;27.558;2023-03-01T09:33:42;6.00;;;5.00;;
78838;SDS011;68189;47.190;27.558;2023-03-01T09:36:16;7.40;;;5.50;;
78838;SDS011;68189;47.190;27.558;2023-03-01T09:38:48;6.40;;;5.10;;
78838;SDS011;68189;47.190;27.558;2023-03-01T09:41:26;7.70;;;5.40;;
78838;SDS011;68189;47.190;27.558;2023-03-01T09:44:16;6.70;;;5.20;;
78838;SDS011;68189;47.190;27.558;2023-03-01T09:47:01;10.60;;;5.90;;
78838;SDS011;68189;47.190;27.558;2023-03-01T09:49:33;7.10;;;5.50;;
78838;SDS011;68189;47.190;27.558;2023-03-01T09:52:11;8.60;;;5.70;;
78838;SDS011;68189;47.190;27.558;2023-03-01T09:54:53;6.10;;;4.90;;
78838;SDS011;68189;47.190;27.558;2023-03-01T09:57:28;6.50;;;5.10;;
78838;SDS011;68189;47.190;27.558;2023-03-01T10:00:19;6.90;;;5.20;;
78838;SDS011;68189;47.190;27.558;2023-03-01T10:03:09;6.10;;;5.00;;
78838;SDS011;68189;47.190;27.558;2023-03-01T10:05:47;6.40;;;4.90;;
78838;SDS011;68189;47.190;27.558;2023-03-01T10:08:30;8.20;;;5.40;;
78838;SDS011;68189;47.190;27.558;2023-03-01T10:11:12;14.50;;;7.10;;
78838;SDS011;68189;47.190;27.558;2023-03-01T10:13:50;11.30;;;6.20;;
78838;SDS011;68189;47.190;27.558;2023-03-01T10:16:28;8.50;;;6.60;;
78838;SDS011;68189;47.190;27.558;2023-03-01T10:19:09;8.50;;;6.10;;
78838;SDS011;68189;47.190;27.558;2023-03-01T10:21:46;8.60;;;5.80;;
78838;SDS011;68189;47.190;27.558;2023-03-01T10:24:19;7.60;;;5.40;;
78838;SDS011;68189;47.190;27.558;2023-03-01T10:26:53;7.80;;;5.50;;
78838;SDS011;68189;47.190;27.558;2023-03-01T10:29:27;8.40;;;5.80;;
78838;SDS011;68189;47.190;27.558;2023-03-01T10:32:06;8.80;;;5.60;;
78838;SDS011;68189;47.190;27.558;2023-03-01T10:34:38;7.80;;;5.30;;
78838;SDS011;68189;47.190;27.558;2023-03-01T10:37:12;6.30;;;5.20;;
78838;SDS011;68189;47.190;27.558;2023-03-01T10:39:58;6.10;;;4.60;;
78838;SDS011;68189;47.190;27.558;2023-03-01T10:42:35;7.70;;;4.70;;
78838;SDS011;68189;47.190;27.558;2023-03-01T10:45:23;6.40;;;5.10;;
78838;SDS011;68189;47.190;27.558;2023-03-01T10:48:10;6.60;;;4.90;;
78838;SDS011;68189;47.190;27.558;2023-03-01T10:50:44;8.00;;;5.20;;
78838;SDS011;68189;47.190;27.558;2023-03-01T10:53:22;6.00;;;5.00;;
78838;SDS011;68189;47.190;27.558;2023-03-01T10:56:02;5.80;;;4.80;;
78838;SDS011;68189;47.190;27.558;2023-03-01T10:58:35;6.90;;;4.80;;
78838;SDS011;68189;47.190;27.558;2023-03-01T11:01:24;5.70;;;4.90;;
78838;SDS011;68189;47.190;27.558;2023-03-01T11:04:09;7.50;;;5.10;;
78838;SDS011;68189;47.190;27.558;2023-03-01T11:06:42;7.70;;;5.40;;
78838;SDS011;68189;47.190;27.558;2023-03-01T11:09:26;7.80;;;4.90;;
78838;SDS011;68189;47.190;27.558;2023-03-01T11:12:11;5.90;;;4.30;;
78838;SDS011;68189;47.190;27.558;2023-03-01T11:14:47;6.70;;;4.80;;
78838;SDS011;68189;47.190;27.558;2023-03-01T11:17:23;7.20;;;5.20;;
78838;SDS011;68189;47.190;27.558;2023-03-01T11:20:02;6.60;;;4.70;;
78838;SDS011;68189;47.190;27.558;2023-03-01T11:22:53;5.50;;;4.60;;
78838;SDS011;68189;47.190;27.558;2023-03-01T11:25:27;6.00;;;4.60;;
78838;SDS011;68189;47.190;27.558;2023-03-01T11:28:03;6.70;;;4.70;;
78838;SDS011;68189;47.190;27.558;2023-03-01T11:30:37;6.50;;;4.60;;
78838;SDS011;68189;47.190;27.558;2023-03-01T11:33:15;6.90;;;5.10;;
78838;SDS011;68189;47.190;27.558;2023-03-01T11:35:55;5.70;;;4.70;;
78838;SDS011;68189;47.190;27.558;2023-03-01T11:38:32;5.70;;;4.20;;
78838;SDS011;68189;47.190;27.558;2023-03-01T11:41:06;5.90;;;4.60;;
78838;SDS011;68189;47.190;27.558;2023-03-01T11:43:44;6.40;;;4.70;;
78838;SDS011;68189;47.190;27.558;2023-03-01T11:46:32;7.00;;;4.50;;
78838;SDS011;68189;47.190;27.558;2023-03-01T11:49:15;6.60;;;4.90;;
78838;SDS011;68189;47.190;27.558;2023-03-01T11:51:58;6.90;;;5.10;;
78838;SDS011;68189;47.190;27.558;2023-03-01T11:57:14;5.80;;;4.80;;
78838;SDS011;68189;47.190;27.558;2023-03-01T12:00:10;5.70;;;4.80;;
78838;SDS011;68189;47.190;27.558;2023-03-01T12:03:04;5.30;;;4.70;;
78838;SDS011;68189;47.190;27.558;2023-03-01T12:08:54;7.20;;;5.30;;
78838;SDS011;68189;47.190;27.558;2023-03-01T12:11:45;6.00;;;4.60;;
78838;SDS011;68189;47.190;27.558;2023-03-01T12:14:44;6.00;;;4.80;;
78838;SDS011;68189;47.190;27.558;2023-03-01T12:17:47;7.20;;;4.90;;
78838;SDS011;68189;47.190;27.558;2023-03-01T12:20:32;5.50;;;4.40;;
78838;SDS011;68189;47.190;27.558;2023-03-01T12:23:21;6.00;;;4.90;;
78838;SDS011;68189;47.190;27.558;2023-03-01T12:26:07;6.10;;;4.40;;
78838;SDS011;68189;47.190;27.558;2023-03-01T12:29:05;5.70;;;4.60;;
78838;SDS011;68189;47.190;27.558;2023-03-01T12:34:56;6.20;;;4.90;;
78838;SDS011;68189;47.190;27.558;2023-03-01T12:37:42;6.80;;;5.00;;
78838;SDS011;68189;47.190;27.558;2023-03-01T12:43:27;6.50;;;5.20;;
78838;SDS011;68189;47.190;27.558;2023-03-01T12:46:18;9.40;;;4.90;;
78838;SDS011;68189;47.190;27.558;2023-03-01T12:48:59;8.50;;;5.20;;
78838;SDS011;68189;47.190;27.558;2023-03-01T12:51:37;6.80;;;5.20;;
78838;SDS011;68189;47.190;27.558;2023-03-01T12:54:11;6.70;;;5.40;;
78838;SDS011;68189;47.190;27.558;2023-03-01T12:56:49;7.50;;;4.90;;
78838;SDS011;68189;47.190;27.558;2023-03-01T12:59:21;8.30;;;5.20;;
78838;SDS011;68189;47.190;27.558;2023-03-01T13:02:02;9.40;;;4.80;;
78838;SDS011;68189;47.190;27.558;2023-03-01T13:05:00;7.50;;;5.20;;
78838;SDS011;68189;47.190;27.558;2023-03-01T13:07:50;6.90;;;4.80;;
78838;SDS011;68189;47.190;27.558;2023-03-01T13:10:31;9.10;;;5.60;;
78838;SDS011;68189;47.190;27.558;2023-03-01T13:13:18;7.80;;;5.60;;
78838;SDS011;68189;47.190;27.558;2023-03-01T13:15:50;6.10;;;4.70;;
78838;SDS011;68189;47.190;27.558;2023-03-01T13:18:31;6.00;;;4.70;;
78838;SDS011;68189;47.190;27.558;2023-03-01T13:21:04;7.40;;;4.70;;
78838;SDS011;68189;47.190;27.558;2023-03-01T13:23:37;9.00;;;4.40;;
78838;SDS011;68189;47.190;27.558;2023-03-01T13:26:10;8.40;;;5.10;;
78838;SDS011;68189;47.190;27.558;2023-03-01T13:28:53;6.60;;;4.80;;
78838;SDS011;68189;47.190;27.558;2023-03-01T13:34:41;7.60;;;5.10;;
78838;SDS011;68189;47.190;27.558;2023-03-01T13:37:33;8.90;;;5.00;;
78838;SDS011;68189;47.190;27.558;2023-03-01T13:45:56;9.40;;;4.70;;
78838;SDS011;68189;47.190;27.558;2023-03-01T13:48:29;5.40;;;4.30;;
78838;SDS011;68189;47.190;27.558;2023-03-01T13:51:02;5.90;;;4.50;;
78838;SDS011;68189;47.190;27.558;2023-03-01T13:53:36;7.20;;;5.20;;
78838;SDS011;68189;47.190;27.558;2023-03-01T13:56:09;6.90;;;4.30;;
78838;SDS011;68189;47.190;27.558;2023-03-01T13:58:53;5.20;;;4.30;;
78838;SDS011;68189;47.190;27.558;2023-03-01T14:01:29;4.90;;;3.90;;
78838;SDS011;68189;47.190;27.558;2023-03-01T14:04:01;5.60;;;3.80;;
78838;SDS011;68189;47.190;27.558;2023-03-01T14:06:47;6.50;;;5.30;;
78838;SDS011;68189;47.190;27.558;2023-03-01T14:09:18;9.40;;;5.90;;
78838;SDS011;68189;47.190;27.558;2023-03-01T14:12:05;10.60;;;6.50;;
78838;SDS011;68189;47.190;27.558;2023-03-01T14:14:55;8.20;;;6.40;;
78838;SDS011;68189;47.190;27.558;2023-03-01T14:20:21;11.70;;;7.00;;
78838;SDS011;68189;47.190;27.558;2023-03-01T14:22:54;9.60;;;6.90;;
78838;SDS011;68189;47.190;27.558;2023-03-01T14:25:27;8.30;;;6.50;;
78838;SDS011;68189;47.190;27.558;2023-03-01T14:28:00;8.70;;;5.90;;
78838;SDS011;68189;47.190;27.558;2023-03-01T14:30:42;9.40;;;6.80;;
78838;SDS011;68189;47.190;27.558;2023-03-01T14:33:22;5.50;;;4.60;;
78838;SDS011;68189;47.190;27.558;2023-03-01T14:35:56;7.60;;;5.40;;
78838;SDS011;68189;47.190;27.558;2023-03-01T14:38:33;7.70;;;4.60;;
78838;SDS011;68189;47.190;27.558;2023-03-01T14:41:06;7.50;;;4.50;;
78838;SDS011;68189;47.190;27.558;2023-03-01T14:43:39;6.50;;;4.40;;
78838;SDS011;68189;47.190;27.558;2023-03-01T14:46:18;5.20;;;4.20;;
78838;SDS011;68189;47.190;27.558;2023-03-01T14:48:55;5.20;;;4.30;;
78838;SDS011;68189;47.190;27.558;2023-03-01T14:51:30;4.90;;;4.00;;
78838;SDS011;68189;47.190;27.558;2023-03-01T14:54:03;7.10;;;4.50;;
78838;SDS011;68189;47.190;27.558;2023-03-01T14:56:47;7.00;;;4.10;;
78838;SDS011;68189;47.190;27.558;2023-03-01T14:59:20;5.80;;;4.20;;
78838;SDS011;68189;47.190;27.558;2023-03-01T15:01:53;4.90;;;3.70;;
78838;SDS011;68189;47.190;27.558;2023-03-01T15:04:26;6.20;;;4.00;;
78838;SDS011;68189;47.190;27.558;2023-03-01T15:06:58;6.60;;;4.30;;
78838;SDS011;68189;47.190;27.558;2023-03-01T15:09:32;4.60;;;3.50;;
78838;SDS011;68189;47.190;27.558;2023-03-01T15:15:18;5.40;;;4.20;;
78838;SDS011;68189;47.190;27.558;2023-03-01T15:17:59;5.80;;;4.00;;
78838;SDS011;68189;47.190;27.558;2023-03-01T15:20:32;5.20;;;3.90;;
78838;SDS011;68189;47.190;27.558;2023-03-01T15:23:04;6.10;;;4.70;;
78838;SDS011;68189;47.190;27.558;2023-03-01T15:25:45;5.30;;;3.40;;
78838;SDS011;68189;47.190;27.558;2023-03-01T15:28:22;4.30;;;3.60;;
78838;SDS011;68189;47.190;27.558;2023-03-01T15:30:56;5.10;;;4.00;;
78838;SDS011;68189;47.190;27.558;2023-03-01T15:33:31;5.60;;;3.90;;
78838;SDS011;68189;47.190;27.558;2023-03-01T15:36:03;5.80;;;4.30;;
78838;SDS011;68189;47.190;27.558;2023-03-01T15:41:31;4.30;;;3.40;;
78838;SDS011;68189;47.190;27.558;2023-03-01T15:44:17;5.40;;;3.80;;
78838;SDS011;68189;47.190;27.558;2023-03-01T15:46:53;4.20;;;3.70;;
78838;SDS011;68189;47.190;27.558;2023-03-01T15:49:34;5.70;;;3.70;;